LHPP/PEV METAR and TAF weather

Enter ICAO airport designator
Station Type Date Time Source
LHPP METAR 2021/09/23 18:15 UTC NOAA

LHPP 231815Z AUTO 23004KT CAVOK 13/09 Q1020


Station Type Date Time Source
LHPP Decoded METAR 2021/09/23 18:15 UTC NOAA

Pecs / Pogany, Hungary (LHPP) 46-06N 018-14E 203M
Sep 23, 2021 - 02:15 PM EDT / 2021.09.23 1815 UTC
Wind: from the SW (230 degrees) at 5 MPH (4 KT):0
Visibility: greater than 7 mile(s):0
Temperature: 55 F (13 C)
Dew Point: 48 F (9 C)
Relative Humidity: 76%
Pressure (altimeter): 30.12 in. Hg (1020 hPa)
ob: LHPP 231815Z AUTO 23004KT CAVOK 13/09 Q1020
cycle: 18

Station Type Date Time Source
LHPP TAF 2017/08/21 15:50 UTC NOAA

TAF LHPP 211700Z 2115/2214 CNL

Example: see airport list